sensor_id;sensor_type;location;lat;lon;timestamp;temperature;humidity
6375;DHT22;35400;45.472;-122.822;2023-07-31T00:02:10;27.20;67.50
6375;DHT22;35400;45.472;-122.822;2023-07-31T00:04:37;27.10;67.70
6375;DHT22;35400;45.472;-122.822;2023-07-31T00:07:04;27.10;66.60
6375;DHT22;35400;45.472;-122.822;2023-07-31T00:09:33;27.10;66.60
6375;DHT22;35400;45.472;-122.822;2023-07-31T00:12:00;27.00;66.50
6375;DHT22;35400;45.472;-122.822;2023-07-31T00:14:27;26.90;66.90
6375;DHT22;35400;45.472;-122.822;2023-07-31T00:16:54;26.90;66.50
6375;DHT22;35400;45.472;-122.822;2023-07-31T00:19:21;26.90;66.60
6375;DHT22;35400;45.472;-122.822;2023-07-31T00:21:48;26.80;66.30
6375;DHT22;35400;45.472;-122.822;2023-07-31T00:24:15;26.70;67.30
6375;DHT22;35400;45.472;-122.822;2023-07-31T00:26:42;26.60;66.50
6375;DHT22;35400;45.472;-122.822;2023-07-31T00:29:09;26.60;66.70
6375;DHT22;35400;45.472;-122.822;2023-07-31T00:31:37;26.50;66.60
6375;DHT22;35400;45.472;-122.822;2023-07-31T00:34:03;26.50;67.70
6375;DHT22;35400;45.472;-122.822;2023-07-31T00:36:30;26.50;66.20
6375;DHT22;35400;45.472;-122.822;2023-07-31T00:38:57;26.50;67.10
6375;DHT22;35400;45.472;-122.822;2023-07-31T00:41:24;26.40;67.00
6375;DHT22;35400;45.472;-122.822;2023-07-31T00:43:51;26.30;66.60
6375;DHT22;35400;45.472;-122.822;2023-07-31T00:46:17;26.20;66.40
6375;DHT22;35400;45.472;-122.822;2023-07-31T00:48:44;26.10;67.00
6375;DHT22;35400;45.472;-122.822;2023-07-31T00:51:11;26.20;67.30
6375;DHT22;35400;45.472;-122.822;2023-07-31T00:53:39;26.30;66.40
6375;DHT22;35400;45.472;-122.822;2023-07-31T00:56:06;26.30;65.90
6375;DHT22;35400;45.472;-122.822;2023-07-31T00:58:34;26.30;66.10
6375;DHT22;35400;45.472;-122.822;2023-07-31T01:01:01;26.10;66.60
6375;DHT22;35400;45.472;-122.822;2023-07-31T01:03:27;26.00;66.90
6375;DHT22;35400;45.472;-122.822;2023-07-31T01:05:58;25.90;67.10
6375;DHT22;35400;45.472;-122.822;2023-07-31T01:11:22;25.90;67.50
6375;DHT22;35400;45.472;-122.822;2023-07-31T01:13:50;26.00;66.60
6375;DHT22;35400;45.472;-122.822;2023-07-31T01:16:17;26.00;67.60
6375;DHT22;35400;45.472;-122.822;2023-07-31T01:18:44;25.90;67.10
6375;DHT22;35400;45.472;-122.822;2023-07-31T01:24:23;25.90;66.90
6375;DHT22;35400;45.472;-122.822;2023-07-31T01:27:02;25.90;66.90
6375;DHT22;35400;45.472;-122.822;2023-07-31T01:30:09;25.90;66.80
6375;DHT22;35400;45.472;-122.822;2023-07-31T01:32:42;25.90;66.80
6375;DHT22;35400;45.472;-122.822;2023-07-31T01:35:09;25.80;66.30
6375;DHT22;35400;45.472;-122.822;2023-07-31T01:37:36;25.90;66.40
6375;DHT22;35400;45.472;-122.822;2023-07-31T01:40:05;25.80;66.70
6375;DHT22;35400;45.472;-122.822;2023-07-31T01:42:32;25.70;67.10
6375;DHT22;35400;45.472;-122.822;2023-07-31T01:44:59;25.70;66.60
6375;DHT22;35400;45.472;-122.822;2023-07-31T01:47:26;25.70;66.80
6375;DHT22;35400;45.472;-122.822;2023-07-31T01:49:53;25.70;66.90
6375;DHT22;35400;45.472;-122.822;2023-07-31T01:52:19;25.70;66.40
6375;DHT22;35400;45.472;-122.822;2023-07-31T01:54:46;25.80;66.30
6375;DHT22;35400;45.472;-122.822;2023-07-31T01:57:13;25.70;66.70
6375;DHT22;35400;45.472;-122.822;2023-07-31T01:59:40;25.70;66.50
6375;DHT22;35400;45.472;-122.822;2023-07-31T02:02:07;25.60;66.40
6375;DHT22;35400;45.472;-122.822;2023-07-31T02:04:34;25.50;66.50
6375;DHT22;35400;45.472;-122.822;2023-07-31T02:07:02;25.30;67.10
6375;DHT22;35400;45.472;-122.822;2023-07-31T02:09:29;25.20;67.30
6375;DHT22;35400;45.472;-122.822;2023-07-31T02:11:56;25.10;68.10
6375;DHT22;35400;45.472;-122.822;2023-07-31T02:14:23;25.10;67.50
6375;DHT22;35400;45.472;-122.822;2023-07-31T02:16:50;25.10;68.00
6375;DHT22;35400;45.472;-122.822;2023-07-31T02:19:17;25.10;68.00
6375;DHT22;35400;45.472;-122.822;2023-07-31T02:21:44;25.20;67.40
6375;DHT22;35400;45.472;-122.822;2023-07-31T02:24:11;25.20;67.30
6375;DHT22;35400;45.472;-122.822;2023-07-31T02:26:38;25.10;67.10
6375;DHT22;35400;45.472;-122.822;2023-07-31T02:29:04;25.10;66.90
6375;DHT22;35400;45.472;-122.822;2023-07-31T02:31:31;25.10;67.10
6375;DHT22;35400;45.472;-122.822;2023-07-31T02:33:58;25.00;67.30
6375;DHT22;35400;45.472;-122.822;2023-07-31T02:36:25;25.00;67.40
6375;DHT22;35400;45.472;-122.822;2023-07-31T02:38:52;24.90;67.90
6375;DHT22;35400;45.472;-122.822;2023-07-31T02:41:19;24.90;67.90
6375;DHT22;35400;45.472;-122.822;2023-07-31T02:43:46;24.80;67.30
6375;DHT22;35400;45.472;-122.822;2023-07-31T02:46:13;24.90;67.20
6375;DHT22;35400;45.472;-122.822;2023-07-31T02:48:40;24.90;67.10
6375;DHT22;35400;45.472;-122.822;2023-07-31T02:51:07;24.80;67.30
6375;DHT22;35400;45.472;-122.822;2023-07-31T02:53:34;24.70;67.70
6375;DHT22;35400;45.472;-122.822;2023-07-31T02:56:01;24.70;67.30
6375;DHT22;35400;45.472;-122.822;2023-07-31T02:58:28;24.70;67.60
6375;DHT22;35400;45.472;-122.822;2023-07-31T03:00:55;24.60;67.90
6375;DHT22;35400;45.472;-122.822;2023-07-31T03:03:21;24.50;68.20
6375;DHT22;35400;45.472;-122.822;2023-07-31T03:05:48;24.50;68.40
6375;DHT22;35400;45.472;-122.822;2023-07-31T03:08:16;24.40;68.50
6375;DHT22;35400;45.472;-122.822;2023-07-31T03:10:43;24.30;68.70
6375;DHT22;35400;45.472;-122.822;2023-07-31T03:13:09;24.30;68.80
6375;DHT22;35400;45.472;-122.822;2023-07-31T03:15:36;24.20;68.80
6375;DHT22;35400;45.472;-122.822;2023-07-31T03:18:03;24.20;69.30
6375;DHT22;35400;45.472;-122.822;2023-07-31T03:20:30;24.10;69.50
6375;DHT22;35400;45.472;-122.822;2023-07-31T03:22:56;24.10;69.50
6375;DHT22;35400;45.472;-122.822;2023-07-31T03:25:23;24.10;69.70
6375;DHT22;35400;45.472;-122.822;2023-07-31T03:27:50;24.00;70.00
6375;DHT22;35400;45.472;-122.822;2023-07-31T03:30:17;23.90;70.50
6375;DHT22;35400;45.472;-122.822;2023-07-31T03:32:44;23.80;71.10
6375;DHT22;35400;45.472;-122.822;2023-07-31T03:35:11;23.80;71.30
6375;DHT22;35400;45.472;-122.822;2023-07-31T03:37:38;23.70;71.50
6375;DHT22;35400;45.472;-122.822;2023-07-31T03:40:05;23.60;71.70
6375;DHT22;35400;45.472;-122.822;2023-07-31T03:42:32;23.50;72.10
6375;DHT22;35400;45.472;-122.822;2023-07-31T03:44:59;23.40;72.40
6375;DHT22;35400;45.472;-122.822;2023-07-31T03:47:26;23.40;72.50
6375;DHT22;35400;45.472;-122.822;2023-07-31T03:49:53;23.30;72.90
6375;DHT22;35400;45.472;-122.822;2023-07-31T03:52:21;23.30;74.30
6375;DHT22;35400;45.472;-122.822;2023-07-31T03:54:48;23.30;75.10
6375;DHT22;35400;45.472;-122.822;2023-07-31T03:57:15;23.20;75.40
6375;DHT22;35400;45.472;-122.822;2023-07-31T03:59:42;23.10;75.70
6375;DHT22;35400;45.472;-122.822;2023-07-31T04:02:09;23.00;76.00
6375;DHT22;35400;45.472;-122.822;2023-07-31T04:04:36;23.00;76.30
6375;DHT22;35400;45.472;-122.822;2023-07-31T04:07:02;22.90;76.30
6375;DHT22;35400;45.472;-122.822;2023-07-31T04:09:29;22.90;76.60
6375;DHT22;35400;45.472;-122.822;2023-07-31T04:11:56;22.80;76.60
6375;DHT22;35400;45.472;-122.822;2023-07-31T04:14:23;22.80;76.80
6375;DHT22;35400;45.472;-122.822;2023-07-31T04:16:51;22.70;76.80
6375;DHT22;35400;45.472;-122.822;2023-07-31T04:19:18;22.60;77.10
6375;DHT22;35400;45.472;-122.822;2023-07-31T04:21:45;22.50;77.20
6375;DHT22;35400;45.472;-122.822;2023-07-31T04:24:12;22.30;77.30
6375;DHT22;35400;45.472;-122.822;2023-07-31T04:26:38;22.30;77.70
6375;DHT22;35400;45.472;-122.822;2023-07-31T04:29:05;22.10;77.80
6375;DHT22;35400;45.472;-122.822;2023-07-31T04:31:33;22.00;78.00
6375;DHT22;35400;45.472;-122.822;2023-07-31T04:34:00;22.00;78.50
6375;DHT22;35400;45.472;-122.822;2023-07-31T04:36:27;22.00;79.30
6375;DHT22;35400;45.472;-122.822;2023-07-31T04:38:53;22.00;78.70
6375;DHT22;35400;45.472;-122.822;2023-07-31T04:41:20;21.80;79.10
6375;DHT22;35400;45.472;-122.822;2023-07-31T04:43:47;21.70;79.40
6375;DHT22;35400;45.472;-122.822;2023-07-31T04:46:14;21.60;79.80
6375;DHT22;35400;45.472;-122.822;2023-07-31T04:48:41;21.50;79.90
6375;DHT22;35400;45.472;-122.822;2023-07-31T04:51:08;21.40;80.00
6375;DHT22;35400;45.472;-122.822;2023-07-31T04:53:38;21.30;80.50
6375;DHT22;35400;45.472;-122.822;2023-07-31T04:56:05;21.30;80.70
6375;DHT22;35400;45.472;-122.822;2023-07-31T04:58:32;21.20;80.80
6375;DHT22;35400;45.472;-122.822;2023-07-31T05:00:59;21.10;81.10
6375;DHT22;35400;45.472;-122.822;2023-07-31T05:03:25;21.10;81.50
6375;DHT22;35400;45.472;-122.822;2023-07-31T05:05:52;21.00;81.80
6375;DHT22;35400;45.472;-122.822;2023-07-31T05:08:19;20.90;82.20
6375;DHT22;35400;45.472;-122.822;2023-07-31T05:10:46;20.90;82.60
6375;DHT22;35400;45.472;-122.822;2023-07-31T05:13:13;20.80;82.50
6375;DHT22;35400;45.472;-122.822;2023-07-31T05:15:41;20.80;83.10
6375;DHT22;35400;45.472;-122.822;2023-07-31T05:18:08;20.70;83.00
6375;DHT22;35400;45.472;-122.822;2023-07-31T05:20:35;20.60;83.40
6375;DHT22;35400;45.472;-122.822;2023-07-31T05:23:02;20.60;83.60
6375;DHT22;35400;45.472;-122.822;2023-07-31T05:25:28;20.50;84.00
6375;DHT22;35400;45.472;-122.822;2023-07-31T05:27:55;20.50;84.10
6375;DHT22;35400;45.472;-122.822;2023-07-31T05:30:22;20.40;84.60
6375;DHT22;35400;45.472;-122.822;2023-07-31T05:32:49;20.30;84.60
6375;DHT22;35400;45.472;-122.822;2023-07-31T05:35:16;20.30;85.30
6375;DHT22;35400;45.472;-122.822;2023-07-31T05:37:42;20.30;85.30
6375;DHT22;35400;45.472;-122.822;2023-07-31T05:40:09;20.20;85.80
6375;DHT22;35400;45.472;-122.822;2023-07-31T05:42:36;20.10;85.90
6375;DHT22;35400;45.472;-122.822;2023-07-31T05:45:06;20.10;86.40
6375;DHT22;35400;45.472;-122.822;2023-07-31T05:47:33;20.00;86.60
6375;DHT22;35400;45.472;-122.822;2023-07-31T05:50:00;19.90;86.90
6375;DHT22;35400;45.472;-122.822;2023-07-31T05:52:27;19.90;87.50
6375;DHT22;35400;45.472;-122.822;2023-07-31T05:54:55;19.80;87.80
6375;DHT22;35400;45.472;-122.822;2023-07-31T05:57:22;19.80;88.00
6375;DHT22;35400;45.472;-122.822;2023-07-31T05:59:49;19.70;88.00
6375;DHT22;35400;45.472;-122.822;2023-07-31T06:02:16;19.70;88.20
6375;DHT22;35400;45.472;-122.822;2023-07-31T06:04:42;19.60;88.40
6375;DHT22;35400;45.472;-122.822;2023-07-31T06:07:09;19.50;88.60
6375;DHT22;35400;45.472;-122.822;2023-07-31T06:09:37;19.50;89.00
6375;DHT22;35400;45.472;-122.822;2023-07-31T06:12:04;19.50;89.40
6375;DHT22;35400;45.472;-122.822;2023-07-31T06:14:31;19.50;90.00
6375;DHT22;35400;45.472;-122.822;2023-07-31T06:16:57;19.50;89.30
6375;DHT22;35400;45.472;-122.822;2023-07-31T06:19:24;19.40;89.50
6375;DHT22;35400;45.472;-122.822;2023-07-31T06:21:51;19.30;89.50
6375;DHT22;35400;45.472;-122.822;2023-07-31T06:24:18;19.30;89.70
6375;DHT22;35400;45.472;-122.822;2023-07-31T06:26:46;19.20;90.00
6375;DHT22;35400;45.472;-122.822;2023-07-31T06:29:13;19.20;90.10
6375;DHT22;35400;45.472;-122.822;2023-07-31T06:31:41;19.10;90.20
6375;DHT22;35400;45.472;-122.822;2023-07-31T06:34:08;19.10;90.20
6375;DHT22;35400;45.472;-122.822;2023-07-31T06:36:34;19.10;90.30
6375;DHT22;35400;45.472;-122.822;2023-07-31T06:39:01;19.00;90.40
6375;DHT22;35400;45.472;-122.822;2023-07-31T06:41:28;18.90;90.50
6375;DHT22;35400;45.472;-122.822;2023-07-31T06:43:55;18.80;90.70
6375;DHT22;35400;45.472;-122.822;2023-07-31T06:46:22;18.80;90.80
6375;DHT22;35400;45.472;-122.822;2023-07-31T06:48:48;18.70;90.90
6375;DHT22;35400;45.472;-122.822;2023-07-31T06:51:15;18.70;91.00
6375;DHT22;35400;45.472;-122.822;2023-07-31T06:53:42;18.60;91.00
6375;DHT22;35400;45.472;-122.822;2023-07-31T06:56:11;18.60;91.10
6375;DHT22;35400;45.472;-122.822;2023-07-31T06:58:38;18.50;91.20
6375;DHT22;35400;45.472;-122.822;2023-07-31T07:01:05;18.50;91.40
6375;DHT22;35400;45.472;-122.822;2023-07-31T07:03:32;18.40;91.40
6375;DHT22;35400;45.472;-122.822;2023-07-31T07:05:59;18.40;91.60
6375;DHT22;35400;45.472;-122.822;2023-07-31T07:08:26;18.30;91.70
6375;DHT22;35400;45.472;-122.822;2023-07-31T07:10:53;18.20;91.80
6375;DHT22;35400;45.472;-122.822;2023-07-31T07:13:20;18.20;91.90
6375;DHT22;35400;45.472;-122.822;2023-07-31T07:15:51;18.20;92.10
6375;DHT22;35400;45.472;-122.822;2023-07-31T07:18:18;18.10;92.20
6375;DHT22;35400;45.472;-122.822;2023-07-31T07:20:52;18.10;92.30
6375;DHT22;35400;45.472;-122.822;2023-07-31T07:23:20;18.10;92.40
6375;DHT22;35400;45.472;-122.822;2023-07-31T07:25:47;18.00;92.50
6375;DHT22;35400;45.472;-122.822;2023-07-31T07:28:14;18.00;92.50
6375;DHT22;35400;45.472;-122.822;2023-07-31T07:30:41;18.00;92.60
6375;DHT22;35400;45.472;-122.822;2023-07-31T07:33:08;17.90;92.70
6375;DHT22;35400;45.472;-122.822;2023-07-31T07:35:35;17.90;92.70
6375;DHT22;35400;45.472;-122.822;2023-07-31T07:38:05;17.80;93.10
6375;DHT22;35400;45.472;-122.822;2023-07-31T07:40:32;17.80;93.00
6375;DHT22;35400;45.472;-122.822;2023-07-31T07:42:58;17.80;93.10
6375;DHT22;35400;45.472;-122.822;2023-07-31T07:45:26;17.70;93.10
6375;DHT22;35400;45.472;-122.822;2023-07-31T07:47:53;17.70;93.30
6375;DHT22;35400;45.472;-122.822;2023-07-31T07:50:20;17.60;93.50
6375;DHT22;35400;45.472;-122.822;2023-07-31T07:52:47;17.60;93.60
6375;DHT22;35400;45.472;-122.822;2023-07-31T07:55:13;17.60;93.70
6375;DHT22;35400;45.472;-122.822;2023-07-31T07:57:40;17.50;93.80
6375;DHT22;35400;45.472;-122.822;2023-07-31T08:00:07;17.50;93.80
6375;DHT22;35400;45.472;-122.822;2023-07-31T08:02:43;17.50;94.00
6375;DHT22;35400;45.472;-122.822;2023-07-31T08:05:09;17.40;94.20
6375;DHT22;35400;45.472;-122.822;2023-07-31T08:07:36;17.40;94.30
6375;DHT22;35400;45.472;-122.822;2023-07-31T08:10:03;17.30;94.40
6375;DHT22;35400;45.472;-122.822;2023-07-31T08:12:30;17.30;94.60
6375;DHT22;35400;45.472;-122.822;2023-07-31T08:14:57;17.20;94.70
6375;DHT22;35400;45.472;-122.822;2023-07-31T08:17:26;17.20;94.90
6375;DHT22;35400;45.472;-122.822;2023-07-31T08:19:53;17.20;95.00
6375;DHT22;35400;45.472;-122.822;2023-07-31T08:22:19;17.10;95.30
6375;DHT22;35400;45.472;-122.822;2023-07-31T08:24:46;17.10;95.50
6375;DHT22;35400;45.472;-122.822;2023-07-31T08:27:13;17.00;95.70
6375;DHT22;35400;45.472;-122.822;2023-07-31T08:29:40;17.00;95.80
6375;DHT22;35400;45.472;-122.822;2023-07-31T08:32:07;16.90;95.90
6375;DHT22;35400;45.472;-122.822;2023-07-31T08:34:33;16.90;96.20
6375;DHT22;35400;45.472;-122.822;2023-07-31T08:37:00;16.80;96.40
6375;DHT22;35400;45.472;-122.822;2023-07-31T08:39:27;16.80;96.60
6375;DHT22;35400;45.472;-122.822;2023-07-31T08:41:58;16.70;96.80
6375;DHT22;35400;45.472;-122.822;2023-07-31T08:44:26;16.70;97.10
6375;DHT22;35400;45.472;-122.822;2023-07-31T08:46:53;16.60;97.30
6375;DHT22;35400;45.472;-122.822;2023-07-31T08:49:21;16.60;97.50
6375;DHT22;35400;45.472;-122.822;2023-07-31T08:51:50;16.50;97.90
6375;DHT22;35400;45.472;-122.822;2023-07-31T08:54:18;16.50;98.10
6375;DHT22;35400;45.472;-122.822;2023-07-31T08:56:46;16.50;98.50
6375;DHT22;35400;45.472;-122.822;2023-07-31T08:59:14;16.40;98.80
6375;DHT22;35400;45.472;-122.822;2023-07-31T09:01:46;16.40;99.10
6375;DHT22;35400;45.472;-122.822;2023-07-31T09:04:16;16.30;99.50
6375;DHT22;35400;45.472;-122.822;2023-07-31T09:06:43;16.20;99.90
6375;DHT22;35400;45.472;-122.822;2023-07-31T09:09:11;16.20;99.90
6375;DHT22;35400;45.472;-122.822;2023-07-31T09:11:38;16.20;99.90
6375;DHT22;35400;45.472;-122.822;2023-07-31T09:14:07;16.10;99.90
6375;DHT22;35400;45.472;-122.822;2023-07-31T09:16:36;16.10;99.90
6375;DHT22;35400;45.472;-122.822;2023-07-31T09:19:25;16.00;99.90
6375;DHT22;35400;45.472;-122.822;2023-07-31T09:21:52;16.00;99.90
6375;DHT22;35400;45.472;-122.822;2023-07-31T09:24:27;16.00;99.90
6375;DHT22;35400;45.472;-122.822;2023-07-31T09:26:54;15.90;99.90
6375;DHT22;35400;45.472;-122.822;2023-07-31T09:29:23;15.90;99.90
6375;DHT22;35400;45.472;-122.822;2023-07-31T09:31:51;15.80;99.90
6375;DHT22;35400;45.472;-122.822;2023-07-31T09:34:18;15.80;99.90
6375;DHT22;35400;45.472;-122.822;2023-07-31T09:36:51;15.70;99.90
6375;DHT22;35400;45.472;-122.822;2023-07-31T09:39:20;15.70;99.90
6375;DHT22;35400;45.472;-122.822;2023-07-31T09:41:56;15.70;99.90
6375;DHT22;35400;45.472;-122.822;2023-07-31T09:44:43;15.60;99.90
6375;DHT22;35400;45.472;-122.822;2023-07-31T09:47:23;15.60;99.90
6375;DHT22;35400;45.472;-122.822;2023-07-31T09:49:50;15.50;99.90
6375;DHT22;35400;45.472;-122.822;2023-07-31T09:52:17;15.50;99.90
6375;DHT22;35400;45.472;-122.822;2023-07-31T09:54:44;15.50;99.90
6375;DHT22;35400;45.472;-122.822;2023-07-31T09:57:11;15.40;99.90
6375;DHT22;35400;45.472;-122.822;2023-07-31T09:59:38;15.40;99.90
6375;DHT22;35400;45.472;-122.822;2023-07-31T10:02:09;15.30;99.90
6375;DHT22;35400;45.472;-122.822;2023-07-31T10:04:40;15.30;99.90
6375;DHT22;35400;45.472;-122.822;2023-07-31T10:07:08;15.20;99.90
6375;DHT22;35400;45.472;-122.822;2023-07-31T10:09:35;15.20;99.90
6375;DHT22;35400;45.472;-122.822;2023-07-31T10:12:06;15.20;99.90
6375;DHT22;35400;45.472;-122.822;2023-07-31T10:14:36;15.20;99.90
6375;DHT22;35400;45.472;-122.822;2023-07-31T10:17:03;15.20;99.90
6375;DHT22;35400;45.472;-122.822;2023-07-31T10:19:31;15.10;99.90
6375;DHT22;35400;45.472;-122.822;2023-07-31T10:21:59;15.10;99.90
6375;DHT22;35400;45.472;-122.822;2023-07-31T10:24:27;15.00;99.90
6375;DHT22;35400;45.472;-122.822;2023-07-31T10:26:58;15.00;99.90
6375;DHT22;35400;45.472;-122.822;2023-07-31T10:29:27;15.00;99.90
6375;DHT22;35400;45.472;-122.822;2023-07-31T10:31:58;15.00;99.90
6375;DHT22;35400;45.472;-122.822;2023-07-31T10:34:26;14.90;99.90
6375;DHT22;35400;45.472;-122.822;2023-07-31T10:37:57;14.90;99.90
6375;DHT22;35400;45.472;-122.822;2023-07-31T10:40:06;14.90;99.90
6375;DHT22;35400;45.472;-122.822;2023-07-31T10:42:37;14.80;99.90
6375;DHT22;35400;45.472;-122.822;2023-07-31T10:45:07;14.80;99.90
6375;DHT22;35400;45.472;-122.822;2023-07-31T10:47:43;14.80;99.90
6375;DHT22;35400;45.472;-122.822;2023-07-31T10:50:19;14.80;99.90
6375;DHT22;35400;45.472;-122.822;2023-07-31T10:52:56;14.80;99.90
6375;DHT22;35400;45.472;-122.822;2023-07-31T10:55:26;14.70;99.90
6375;DHT22;35400;45.472;-122.822;2023-07-31T10:57:58;14.70;99.90
6375;DHT22;35400;45.472;-122.822;2023-07-31T11:00:29;14.70;99.90
6375;DHT22;35400;45.472;-122.822;2023-07-31T11:02:57;14.70;99.90
6375;DHT22;35400;45.472;-122.822;2023-07-31T11:05:47;14.60;99.90
6375;DHT22;35400;45.472;-122.822;2023-07-31T11:08:22;14.60;99.90
6375;DHT22;35400;45.472;-122.822;2023-07-31T11:13:39;14.50;99.90
6375;DHT22;35400;45.472;-122.822;2023-07-31T11:16:07;14.50;99.90
6375;DHT22;35400;45.472;-122.822;2023-07-31T11:18:34;14.50;99.90
6375;DHT22;35400;45.472;-122.822;2023-07-31T11:21:01;14.50;99.90
6375;DHT22;35400;45.472;-122.822;2023-07-31T11:23:28;14.40;99.90
6375;DHT22;35400;45.472;-122.822;2023-07-31T11:25:59;14.40;99.90
6375;DHT22;35400;45.472;-122.822;2023-07-31T11:28:31;14.30;99.90
6375;DHT22;35400;45.472;-122.822;2023-07-31T11:30:58;14.30;99.90
6375;DHT22;35400;45.472;-122.822;2023-07-31T11:33:26;14.30;99.90
6375;DHT22;35400;45.472;-122.822;2023-07-31T11:35:53;14.20;99.90
6375;DHT22;35400;45.472;-122.822;2023-07-31T11:38:31;14.20;99.90
6375;DHT22;35400;45.472;-122.822;2023-07-31T11:41:03;14.20;99.90
6375;DHT22;35400;45.472;-122.822;2023-07-31T11:43:34;14.20;99.90
6375;DHT22;35400;45.472;-122.822;2023-07-31T11:46:02;14.10;99.90
6375;DHT22;35400;45.472;-122.822;2023-07-31T11:48:31;14.10;99.90
6375;DHT22;35400;45.472;-122.822;2023-07-31T11:51:01;14.10;99.90
6375;DHT22;35400;45.472;-122.822;2023-07-31T11:56:04;14.00;99.90
6375;DHT22;35400;45.472;-122.822;2023-07-31T11:58:34;14.00;99.90
6375;DHT22;35400;45.472;-122.822;2023-07-31T12:01:02;13.90;99.90
6375;DHT22;35400;45.472;-122.822;2023-07-31T12:03:29;13.90;99.90
6375;DHT22;35400;45.472;-122.822;2023-07-31T12:05:56;13.80;99.90
6375;DHT22;35400;45.472;-122.822;2023-07-31T12:08:23;13.80;99.90
6375;DHT22;35400;45.472;-122.822;2023-07-31T12:10:51;13.80;99.90
6375;DHT22;35400;45.472;-122.822;2023-07-31T12:13:26;13.70;99.90
6375;DHT22;35400;45.472;-122.822;2023-07-31T12:15:58;13.70;99.90
6375;DHT22;35400;45.472;-122.822;2023-07-31T12:18:26;13.70;99.90
6375;DHT22;35400;45.472;-122.822;2023-07-31T12:20:58;13.60;99.90
6375;DHT22;35400;45.472;-122.822;2023-07-31T12:26:16;13.50;99.90
6375;DHT22;35400;45.472;-122.822;2023-07-31T12:28:44;13.50;99.90
6375;DHT22;35400;45.472;-122.822;2023-07-31T12:31:29;13.40;99.90
6375;DHT22;35400;45.472;-122.822;2023-07-31T12:34:00;13.40;99.90
6375;DHT22;35400;45.472;-122.822;2023-07-31T12:36:28;13.40;99.90
6375;DHT22;35400;45.472;-122.822;2023-07-31T12:38:58;13.30;99.90
6375;DHT22;35400;45.472;-122.822;2023-07-31T12:41:26;13.30;99.90
6375;DHT22;35400;45.472;-122.822;2023-07-31T12:43:53;13.30;99.90
6375;DHT22;35400;45.472;-122.822;2023-07-31T12:46:20;13.20;99.90
6375;DHT22;35400;45.472;-122.822;2023-07-31T12:48:47;13.20;99.90
6375;DHT22;35400;45.472;-122.822;2023-07-31T12:51:13;13.20;99.90
6375;DHT22;35400;45.472;-122.822;2023-07-31T12:53:40;13.10;99.90
6375;DHT22;35400;45.472;-122.822;2023-07-31T12:56:07;13.10;99.90
6375;DHT22;35400;45.472;-122.822;2023-07-31T12:58:34;13.00;99.90
6375;DHT22;35400;45.472;-122.822;2023-07-31T13:01:01;13.00;99.90
6375;DHT22;35400;45.472;-122.822;2023-07-31T13:03:28;13.00;99.90
6375;DHT22;35400;45.472;-122.822;2023-07-31T13:05:55;12.90;99.90
6375;DHT22;35400;45.472;-122.822;2023-07-31T13:08:22;13.00;99.90
6375;DHT22;35400;45.472;-122.822;2023-07-31T13:10:49;12.90;99.90
6375;DHT22;35400;45.472;-122.822;2023-07-31T13:13:15;12.90;99.90
6375;DHT22;35400;45.472;-122.822;2023-07-31T13:15:44;12.90;99.90
6375;DHT22;35400;45.472;-122.822;2023-07-31T13:18:11;12.90;99.90
6375;DHT22;35400;45.472;-122.822;2023-07-31T13:20:38;12.90;99.90
6375;DHT22;35400;45.472;-122.822;2023-07-31T13:23:05;12.80;99.90
6375;DHT22;35400;45.472;-122.822;2023-07-31T13:25:32;12.90;99.90
6375;DHT22;35400;45.472;-122.822;2023-07-31T13:27:59;12.90;99.90
6375;DHT22;35400;45.472;-122.822;2023-07-31T13:30:25;12.90;99.90
6375;DHT22;35400;45.472;-122.822;2023-07-31T13:32:53;12.90;99.90
6375;DHT22;35400;45.472;-122.822;2023-07-31T13:35:20;12.90;99.90
6375;DHT22;35400;45.472;-122.822;2023-07-31T13:37:47;12.90;99.90
6375;DHT22;35400;45.472;-122.822;2023-07-31T13:40:14;12.90;99.90
6375;DHT22;35400;45.472;-122.822;2023-07-31T13:42:41;12.90;99.90
6375;DHT22;35400;45.472;-122.822;2023-07-31T13:45:08;13.00;99.90
6375;DHT22;35400;45.472;-122.822;2023-07-31T13:47:37;13.10;99.90
6375;DHT22;35400;45.472;-122.822;2023-07-31T13:50:04;13.20;99.90
6375;DHT22;35400;45.472;-122.822;2023-07-31T13:52:31;13.30;99.90
6375;DHT22;35400;45.472;-122.822;2023-07-31T13:54:58;13.40;99.90
6375;DHT22;35400;45.472;-122.822;2023-07-31T13:57:25;13.50;99.90
6375;DHT22;35400;45.472;-122.822;2023-07-31T13:59:51;13.60;99.90
6375;DHT22;35400;45.472;-122.822;2023-07-31T14:02:18;13.70;99.90
6375;DHT22;35400;45.472;-122.822;2023-07-31T14:04:45;13.80;99.90
6375;DHT22;35400;45.472;-122.822;2023-07-31T14:07:12;13.80;99.90
6375;DHT22;35400;45.472;-122.822;2023-07-31T14:09:39;13.90;99.90
6375;DHT22;35400;45.472;-122.822;2023-07-31T14:12:06;14.00;99.90
6375;DHT22;35400;45.472;-122.822;2023-07-31T14:14:32;14.20;99.90
6375;DHT22;35400;45.472;-122.822;2023-07-31T14:17:00;14.30;99.90
6375;DHT22;35400;45.472;-122.822;2023-07-31T14:19:27;14.40;99.90
6375;DHT22;35400;45.472;-122.822;2023-07-31T14:21:54;14.50;99.90
6375;DHT22;35400;45.472;-122.822;2023-07-31T14:24:21;14.60;99.90
6375;DHT22;35400;45.472;-122.822;2023-07-31T14:26:47;14.70;99.90
6375;DHT22;35400;45.472;-122.822;2023-07-31T14:29:14;14.70;99.90
6375;DHT22;35400;45.472;-122.822;2023-07-31T14:31:41;14.80;99.90
6375;DHT22;35400;45.472;-122.822;2023-07-31T14:34:08;15.00;99.90
6375;DHT22;35400;45.472;-122.822;2023-07-31T14:36:34;15.10;99.90
6375;DHT22;35400;45.472;-122.822;2023-07-31T14:39:01;15.30;99.90
6375;DHT22;35400;45.472;-122.822;2023-07-31T14:41:28;15.40;99.90
6375;DHT22;35400;45.472;-122.822;2023-07-31T14:43:55;15.50;99.90
6375;DHT22;35400;45.472;-122.822;2023-07-31T14:46:22;15.60;99.90
6375;DHT22;35400;45.472;-122.822;2023-07-31T14:48:48;15.70;99.90
6375;DHT22;35400;45.472;-122.822;2023-07-31T14:51:15;15.80;99.90
6375;DHT22;35400;45.472;-122.822;2023-07-31T14:53:43;16.10;99.90
6375;DHT22;35400;45.472;-122.822;2023-07-31T14:56:10;16.50;99.90
6375;DHT22;35400;45.472;-122.822;2023-07-31T14:58:37;16.90;99.90
6375;DHT22;35400;45.472;-122.822;2023-07-31T15:01:04;17.30;99.90
6375;DHT22;35400;45.472;-122.822;2023-07-31T15:03:31;17.90;99.90
6375;DHT22;35400;45.472;-122.822;2023-07-31T15:05:57;18.80;99.90
6375;DHT22;35400;45.472;-122.822;2023-07-31T15:08:24;19.90;99.90
6375;DHT22;35400;45.472;-122.822;2023-07-31T15:10:51;21.00;99.90
6375;DHT22;35400;45.472;-122.822;2023-07-31T15:15:51;22.90;99.90
6375;DHT22;35400;45.472;-122.822;2023-07-31T15:18:17;23.80;99.00
6375;DHT22;35400;45.472;-122.822;2023-07-31T15:20:44;24.50;97.50
6375;DHT22;35400;45.472;-122.822;2023-07-31T15:23:11;25.00;95.70
6375;DHT22;35400;45.472;-122.822;2023-07-31T15:25:38;25.70;93.50